createdAt,value
2018-12-21T00:02:05.296Z,112.97
2018-12-21T00:04:34.286Z,116.33
2018-12-21T00:07:03.303Z,119.57
2018-12-21T00:09:32.218Z,107.80
2018-12-21T00:12:01.247Z,121.63
2018-12-21T00:14:30.112Z,116.07
2018-12-21T00:16:59.061Z,113.67
2018-12-21T00:19:27.989Z,108.13
2018-12-21T00:21:57.567Z,110.43
2018-12-21T00:24:26.695Z,106.60
2018-12-21T00:26:55.558Z,104.70
2018-12-21T00:29:24.435Z,105.00
2018-12-21T00:31:58.451Z,111.43
2018-12-21T00:34:32.744Z,107.97
2018-12-21T00:37:06.747Z,109.57
2018-12-21T00:39:42.937Z,109.63
2018-12-21T00:42:16.437Z,114.33
2018-12-21T00:44:45.661Z,111.13
2018-12-21T00:47:16.012Z,112.33
2018-12-21T00:49:44.882Z,107.30
2018-12-21T00:52:14.035Z,108.33
2018-12-21T00:54:42.903Z,104.50
2018-12-21T00:57:11.981Z,107.33
2018-12-21T00:59:40.837Z,104.50
2018-12-21T01:02:09.693Z,107.33
2018-12-21T01:04:38.648Z,106.63
2018-12-21T01:07:07.704Z,107.97
2018-12-21T01:09:37.597Z,108.30
2018-12-21T01:12:07.767Z,107.17
2018-12-21T01:14:36.803Z,108.80
2018-12-21T01:17:05.947Z,108.67
2018-12-21T01:19:34.849Z,110.83
2018-12-21T01:22:04.321Z,101.80
2018-12-21T01:24:35.190Z,111.17
2018-12-21T01:27:04.292Z,110.20
2018-12-21T01:29:33.164Z,101.70
2018-12-21T01:32:02.042Z,109.13
2018-12-21T01:34:31.010Z,102.33
2018-12-21T01:36:59.899Z,105.87
2018-12-21T01:39:28.949Z,106.07
2018-12-21T01:42:01.747Z,107.37
2018-12-21T01:44:30.602Z,96.60
2018-12-21T01:46:59.502Z,102.77
2018-12-21T01:49:28.366Z,105.90
2018-12-21T01:51:57.238Z,95.87
2018-12-21T01:54:26.171Z,101.37
2018-12-21T01:56:55.049Z,100.67
2018-12-21T01:59:23.929Z,101.40
2018-12-21T02:01:52.863Z,107.87
2018-12-21T02:04:21.734Z,104.83
2018-12-21T02:06:50.618Z,100.50
2018-12-21T02:09:19.552Z,104.70
2018-12-21T02:11:50.229Z,99.73
2018-12-21T02:14:19.118Z,97.83
2018-12-21T02:16:47.958Z,96.20
2018-12-21T02:19:16.806Z,97.93
2018-12-21T02:21:45.780Z,101.20
2018-12-21T02:24:14.707Z,96.07
2018-12-21T02:26:43.624Z,94.57
2018-12-21T02:29:12.519Z,101.40
2018-12-21T02:31:41.547Z,87.07
2018-12-21T02:34:10.653Z,95.87
2018-12-21T02:36:39.670Z,90.37
2018-12-21T02:39:08.640Z,102.13
2018-12-21T02:41:37.938Z,88.40
2018-12-21T02:44:06.849Z,93.70
2018-12-21T02:46:35.812Z,87.17
2018-12-21T02:49:04.705Z,85.63
2018-12-21T02:51:33.597Z,89.73
2018-12-21T02:54:03.057Z,88.87
2018-12-21T02:56:31.942Z,89.70
2018-12-21T02:59:00.854Z,94.23
2018-12-21T03:01:30.618Z,94.53
2018-12-21T03:03:59.447Z,89.00
2018-12-21T03:06:28.409Z,89.77
2018-12-21T03:08:57.282Z,98.07
2018-12-21T03:11:26.166Z,85.00
2018-12-21T03:13:55.057Z,85.20
2018-12-21T03:16:23.929Z,87.17
2018-12-21T03:18:52.881Z,90.93
2018-12-21T03:21:21.769Z,94.13
2018-12-21T03:23:50.630Z,83.30
2018-12-21T03:26:19.817Z,87.47
2018-12-21T03:28:48.729Z,82.33
2018-12-21T03:31:17.931Z,85.73
2018-12-21T03:33:46.864Z,89.17
2018-12-21T03:36:15.844Z,89.90
2018-12-21T03:38:44.713Z,88.00
2018-12-21T03:41:13.656Z,81.27
2018-12-21T03:43:42.550Z,85.60
2018-12-21T03:46:11.475Z,80.53
2018-12-21T03:48:40.386Z,89.40
2018-12-21T03:51:09.251Z,81.87
2018-12-21T03:53:38.145Z,81.67
2018-12-21T03:56:06.991Z,78.57
2018-12-21T03:58:35.842Z,76.87
2018-12-21T04:01:04.930Z,77.47
2018-12-21T04:03:34.182Z,80.57
2018-12-21T04:06:03.341Z,78.93
2018-12-21T04:08:32.486Z,84.53
2018-12-21T04:11:01.410Z,79.27
2018-12-21T04:13:30.259Z,82.93
2018-12-21T04:15:59.153Z,79.77
2018-12-21T04:18:28.024Z,78.63
2018-12-21T04:20:56.868Z,81.90
2018-12-21T04:23:25.937Z,76.90
2018-12-21T04:25:54.768Z,81.97
2018-12-21T04:28:23.621Z,83.40
2018-12-21T04:30:52.647Z,82.20
2018-12-21T04:33:21.510Z,75.37
2018-12-21T04:35:50.573Z,77.73
2018-12-21T04:38:19.413Z,73.37
2018-12-21T04:40:48.777Z,77.53
2018-12-21T04:43:17.657Z,73.73
2018-12-21T04:45:46.526Z,83.33
2018-12-21T04:48:16.148Z,80.50
2018-12-21T04:50:45.007Z,76.27
2018-12-21T04:53:13.872Z,74.03
2018-12-21T04:55:42.779Z,80.27
2018-12-21T04:58:11.637Z,79.57
2018-12-21T05:00:40.889Z,82.77
2018-12-21T05:03:09.931Z,79.10
2018-12-21T05:05:39.856Z,78.60
2018-12-21T05:08:08.791Z,81.47
2018-12-21T05:10:37.719Z,74.00
2018-12-21T05:13:06.589Z,78.73
2018-12-21T05:15:35.426Z,78.13
2018-12-21T05:18:04.970Z,80.60
2018-12-21T05:20:33.809Z,79.77
2018-12-21T05:23:02.669Z,75.37
2018-12-21T05:25:32.079Z,78.50
2018-12-21T05:28:00.916Z,81.03
2018-12-21T05:30:29.758Z,83.30
2018-12-21T05:32:58.634Z,82.67
2018-12-21T05:35:27.593Z,83.70
2018-12-21T05:37:56.482Z,83.13
2018-12-21T05:40:25.363Z,79.47
2018-12-21T05:42:54.299Z,83.13
2018-12-21T05:45:23.142Z,81.17
2018-12-21T05:47:53.628Z,80.20
2018-12-21T05:50:23.133Z,81.33
2018-12-21T05:52:53.573Z,88.30
2018-12-21T05:55:22.963Z,84.53
2018-12-21T05:57:51.838Z,81.40
2018-12-21T06:00:20.845Z,78.47
2018-12-21T06:02:49.837Z,93.63
2018-12-21T06:05:18.881Z,86.97
2018-12-21T06:07:56.817Z,79.13
2018-12-21T06:10:31.962Z,73.67
2018-12-21T06:13:00.941Z,80.13
2018-12-21T06:15:29.914Z,83.23
2018-12-21T06:17:58.897Z,80.93
2018-12-21T06:20:28.329Z,83.23
2018-12-21T06:22:57.269Z,84.13
2018-12-21T06:25:26.268Z,76.90
2018-12-21T06:27:55.716Z,88.53
2018-12-21T06:30:24.640Z,92.30
2018-12-21T06:32:53.600Z,77.63
2018-12-21T06:35:22.507Z,75.30
2018-12-21T06:37:51.455Z,75.10
2018-12-21T06:40:23.146Z,78.07
2018-12-21T06:42:55.209Z,71.80
2018-12-21T06:45:24.151Z,76.10
2018-12-21T06:47:52.996Z,75.40
2018-12-21T06:50:21.937Z,70.83
2018-12-21T06:52:50.825Z,72.63
2018-12-21T06:55:19.872Z,72.40
2018-12-21T06:57:48.871Z,77.00
2018-12-21T07:00:17.750Z,75.57
2018-12-21T07:02:46.720Z,72.07
2018-12-21T07:05:17.031Z,77.07
2018-12-21T07:07:46.055Z,73.63
2018-12-21T07:10:14.918Z,78.90
2018-12-21T07:12:43.799Z,76.33
2018-12-21T07:15:12.911Z,79.63
2018-12-21T07:17:41.790Z,75.03
2018-12-21T07:20:10.740Z,75.73
2018-12-21T07:22:39.619Z,78.77
2018-12-21T07:25:09.431Z,71.57
2018-12-21T07:27:39.771Z,72.50
2018-12-21T07:30:11.384Z,86.23
2018-12-21T07:32:40.361Z,87.03
2018-12-21T07:35:12.634Z,92.67
2018-12-21T07:37:41.723Z,100.50
2018-12-21T07:40:11.452Z,78.53
2018-12-21T07:42:40.423Z,91.23
2018-12-21T07:45:10.336Z,95.60
2018-12-21T07:47:39.485Z,108.30
2018-12-21T07:50:10.177Z,92.57
2018-12-21T07:52:39.198Z,77.70
2018-12-21T07:55:09.590Z,78.60
2018-12-21T07:57:38.510Z,83.87
2018-12-21T08:00:11.057Z,85.83
2018-12-21T08:02:40.046Z,98.33
2018-12-21T08:05:09.113Z,83.10
2018-12-21T08:07:38.065Z,81.30
2018-12-21T08:10:11.506Z,76.50
2018-12-21T08:12:40.427Z,72.67
2018-12-21T08:15:09.504Z,71.23
2018-12-21T08:17:38.509Z,65.57
2018-12-21T08:20:08.786Z,67.17
2018-12-21T08:22:37.942Z,66.03
2018-12-21T08:25:07.549Z,61.70
2018-12-21T08:27:36.673Z,57.97
2018-12-21T08:30:07.269Z,62.23
2018-12-21T08:32:36.269Z,61.00
2018-12-21T08:35:05.493Z,55.13
2018-12-21T08:37:34.486Z,57.43
2018-12-21T08:40:03.476Z,55.57
2018-12-21T08:42:32.346Z,57.17
2018-12-21T08:45:01.279Z,52.57
2018-12-21T08:47:30.373Z,53.00
2018-12-21T08:49:59.322Z,56.87
2018-12-21T08:52:28.478Z,53.43
2018-12-21T08:54:57.577Z,58.53
2018-12-21T08:57:26.494Z,58.60
2018-12-21T08:59:55.428Z,53.77
2018-12-21T09:02:24.399Z,55.07
2018-12-21T09:04:53.483Z,52.93
2018-12-21T09:07:22.675Z,52.30
2018-12-21T09:09:51.500Z,55.73
2018-12-21T09:12:20.459Z,51.53
2018-12-21T09:14:50.661Z,49.03
2018-12-21T09:17:19.509Z,53.57
2018-12-21T09:19:48.445Z,51.87
2018-12-21T09:22:17.693Z,55.77
2018-12-21T09:24:46.562Z,51.73
2018-12-21T09:27:15.509Z,53.80
2018-12-21T09:29:44.466Z,53.43
2018-12-21T09:32:13.427Z,52.30
2018-12-21T09:34:42.753Z,57.07
2018-12-21T09:37:11.718Z,59.23
2018-12-21T09:39:40.556Z,53.37
2018-12-21T09:42:09.482Z,57.77
2018-12-21T09:44:38.469Z,53.37
2018-12-21T09:47:07.400Z,52.10
2018-12-21T09:49:36.407Z,52.57
2018-12-21T09:52:05.397Z,56.27
2018-12-21T09:54:34.483Z,73.50
2018-12-21T09:57:03.392Z,54.50
2018-12-21T09:59:32.903Z,64.77
2018-12-21T10:02:01.754Z,79.83
2018-12-21T10:04:30.625Z,72.77
2018-12-21T10:06:59.468Z,65.37
2018-12-21T10:09:28.393Z,60.57
2018-12-21T10:11:57.425Z,57.90
2018-12-21T10:14:26.326Z,62.90
2018-12-21T10:16:55.256Z,53.23
2018-12-21T10:19:24.160Z,54.37
2018-12-21T10:21:53.021Z,51.17
2018-12-21T10:24:21.913Z,52.47
2018-12-21T10:26:51.101Z,50.57
2018-12-21T10:29:20.298Z,52.53
2018-12-21T10:31:49.220Z,58.70
2018-12-21T10:34:18.202Z,56.67
2018-12-21T10:36:47.054Z,56.53
2018-12-21T10:39:15.963Z,53.10
2018-12-21T10:41:44.818Z,54.53
2018-12-21T10:44:13.740Z,54.67
2018-12-21T10:46:42.776Z,52.73
2018-12-21T10:49:11.664Z,49.57
2018-12-21T10:51:41.268Z,50.93
2018-12-21T10:54:10.556Z,57.50
2018-12-21T10:56:39.784Z,56.77
2018-12-21T10:59:08.680Z,55.43
2018-12-21T11:01:37.867Z,54.83
2018-12-21T11:04:07.017Z,56.97
2018-12-21T11:06:35.957Z,55.23
2018-12-21T11:09:06.722Z,55.00
2018-12-21T11:11:35.662Z,56.70
2018-12-21T11:14:04.512Z,55.23
2018-12-21T11:16:33.438Z,53.27
2018-12-21T11:19:02.313Z,50.97
2018-12-21T11:21:31.304Z,52.57
2018-12-21T11:24:00.227Z,51.10
2018-12-21T11:26:29.789Z,50.97
2018-12-21T11:28:58.667Z,48.57
2018-12-21T11:31:27.595Z,47.27
2018-12-21T11:33:56.497Z,42.67
2018-12-21T11:36:25.426Z,48.40
2018-12-21T11:38:54.341Z,43.83
2018-12-21T11:41:23.234Z,47.40
2018-12-21T11:43:52.234Z,41.33
2018-12-21T11:46:21.120Z,45.50
2018-12-21T11:48:50.018Z,43.47
2018-12-21T11:51:18.891Z,44.43
2018-12-21T11:53:47.783Z,45.80
2018-12-21T11:56:16.717Z,44.80
2018-12-21T11:58:45.600Z,43.43
2018-12-21T12:01:14.527Z,40.43
2018-12-21T12:03:43.658Z,42.70
2018-12-21T12:06:12.655Z,41.23
2018-12-21T12:08:41.781Z,45.43
2018-12-21T12:11:10.753Z,49.27
2018-12-21T12:13:39.750Z,47.13
2018-12-21T12:16:08.717Z,53.63
2018-12-21T12:18:37.624Z,46.33
2018-12-21T12:21:06.814Z,43.03
2018-12-21T12:23:35.710Z,46.00
2018-12-21T12:26:04.720Z,47.07
2018-12-21T12:28:33.603Z,45.20
2018-12-21T12:31:02.506Z,45.40
2018-12-21T12:33:31.395Z,48.50
2018-12-21T12:36:00.279Z,46.20
2018-12-21T12:38:29.156Z,44.93
2018-12-21T12:41:06.381Z,46.00
2018-12-21T12:43:29.336Z,45.20
2018-12-21T12:45:58.362Z,44.20
2018-12-21T12:48:27.242Z,51.00
2018-12-21T12:50:56.163Z,47.57
2018-12-21T12:53:25.122Z,51.47
2018-12-21T12:55:54.045Z,45.80
2018-12-21T12:58:23.871Z,47.53
2018-12-21T13:00:52.748Z,48.93
2018-12-21T13:03:21.809Z,44.60
2018-12-21T13:05:50.709Z,48.13
2018-12-21T13:08:19.598Z,49.80
2018-12-21T13:10:48.517Z,48.27
2018-12-21T13:13:17.412Z,45.63
2018-12-21T13:15:46.293Z,47.40
2018-12-21T13:18:15.291Z,44.83
2018-12-21T13:20:44.271Z,51.57
2018-12-21T13:23:13.126Z,49.83
2018-12-21T13:25:42.034Z,52.83
2018-12-21T13:28:10.991Z,55.03
2018-12-21T13:30:39.872Z,53.33
2018-12-21T13:33:08.779Z,54.80
2018-12-21T13:35:37.750Z,57.43
2018-12-21T13:38:06.710Z,61.10
2018-12-21T13:40:35.649Z,54.93
2018-12-21T13:43:04.566Z,60.37
2018-12-21T13:45:33.505Z,58.20
2018-12-21T13:48:02.363Z,63.70
2018-12-21T13:50:31.349Z,59.60
2018-12-21T13:53:00.190Z,58.27
2018-12-21T13:55:29.079Z,57.20
2018-12-21T13:57:57.965Z,62.80
2018-12-21T14:00:26.867Z,58.80
2018-12-21T14:02:56.537Z,63.07
2018-12-21T14:05:25.531Z,63.13
2018-12-21T14:07:54.514Z,60.80
2018-12-21T14:10:24.319Z,60.20
2018-12-21T14:12:53.166Z,64.43
2018-12-21T14:15:22.095Z,62.03
2018-12-21T14:17:50.985Z,61.93
2018-12-21T14:20:19.824Z,60.33
2018-12-21T14:22:48.718Z,63.93
2018-12-21T14:25:17.589Z,66.20
2018-12-21T14:27:46.423Z,60.00
2018-12-21T14:30:15.435Z,62.97
2018-12-21T14:32:44.298Z,63.97
2018-12-21T14:35:13.179Z,64.63
2018-12-21T14:37:42.045Z,62.90
2018-12-21T14:40:10.947Z,59.63
2018-12-21T14:42:39.852Z,59.63
2018-12-21T14:45:09.127Z,67.17
2018-12-21T14:47:38.037Z,66.37
2018-12-21T14:50:08.897Z,59.63
2018-12-21T14:52:37.829Z,70.10
2018-12-21T14:55:07.897Z,70.20
2018-12-21T14:57:36.794Z,72.37
2018-12-21T15:00:10.371Z,76.30
2018-12-21T15:02:39.283Z,77.47
2018-12-21T15:05:08.653Z,81.30
2018-12-21T15:07:37.560Z,74.27
2018-12-21T15:10:08.589Z,72.60
2018-12-21T15:12:37.527Z,72.73
2018-12-21T15:15:07.820Z,70.13
2018-12-21T15:17:36.829Z,83.50
2018-12-21T15:20:09.067Z,77.93
2018-12-21T15:22:38.018Z,78.30
2018-12-21T15:25:07.802Z,74.73
2018-12-21T15:27:36.880Z,74.47
2018-12-21T15:30:08.577Z,75.17
2018-12-21T15:32:37.691Z,71.83
2018-12-21T15:35:06.890Z,75.57
2018-12-21T15:37:35.857Z,79.27
2018-12-21T15:40:06.140Z,75.43
2018-12-21T15:43:08.421Z,80.80
2018-12-21T15:48:40.440Z,80.30
2018-12-21T15:51:09.478Z,76.10
2018-12-21T15:53:38.470Z,76.67
2018-12-21T15:56:13.301Z,76.83
2018-12-21T15:58:45.914Z,70.77
2018-12-21T16:01:20.098Z,79.63
2018-12-21T16:03:56.082Z,74.53
2018-12-21T16:06:25.217Z,79.53
2018-12-21T16:11:53.342Z,74.43
2018-12-21T16:14:22.366Z,75.43
2018-12-21T16:16:52.702Z,80.47
2018-12-21T16:19:21.697Z,79.27
2018-12-21T16:21:50.845Z,79.33
2018-12-21T16:24:19.749Z,76.00
2018-12-21T16:26:48.719Z,83.63
2018-12-21T16:29:17.591Z,79.40
2018-12-21T16:31:46.429Z,79.40
2018-12-21T16:34:15.545Z,85.83
2018-12-21T16:36:44.774Z,87.30
2018-12-21T16:39:13.671Z,82.83
2018-12-21T16:41:42.562Z,87.70
2018-12-21T16:44:12.227Z,96.53
2018-12-21T16:46:41.182Z,97.27
2018-12-21T16:49:10.066Z,87.20
2018-12-21T16:51:38.908Z,91.73
2018-12-21T16:54:07.910Z,90.13
2018-12-21T16:56:36.814Z,92.23
2018-12-21T16:59:05.772Z,92.43
2018-12-21T17:01:34.708Z,94.20
2018-12-21T17:04:03.572Z,93.10
2018-12-21T17:06:32.546Z,97.67
2018-12-21T17:09:01.468Z,91.00
2018-12-21T17:11:30.515Z,86.33
2018-12-21T17:13:59.517Z,85.37
2018-12-21T17:16:28.404Z,97.10
2018-12-21T17:18:58.206Z,90.37
2018-12-21T17:21:27.181Z,87.07
2018-12-21T17:23:56.054Z,85.03
2018-12-21T17:26:24.982Z,85.03
2018-12-21T17:28:53.887Z,77.90
2018-12-21T17:31:22.730Z,80.40
2018-12-21T17:33:51.720Z,80.47
2018-12-21T17:36:20.668Z,81.60
2018-12-21T17:38:49.574Z,78.33
2018-12-21T17:41:18.538Z,84.80
2018-12-21T17:43:47.598Z,80.43
2018-12-21T17:46:17.608Z,76.27
2018-12-21T17:49:00.673Z,87.73
2018-12-21T17:51:38.480Z,81.00
2018-12-21T17:54:21.459Z,77.63
2018-12-21T17:56:59.928Z,81.57
2018-12-21T17:59:35.518Z,77.73
2018-12-21T18:02:13.915Z,71.60
2018-12-21T18:04:43.442Z,74.00
2018-12-21T18:07:12.602Z,79.17
2018-12-21T18:09:41.579Z,74.97
2018-12-21T18:12:10.650Z,73.90
2018-12-21T18:14:39.951Z,78.87
2018-12-21T18:17:10.810Z,75.97
2018-12-21T18:19:39.727Z,77.20
2018-12-21T18:22:15.318Z,73.73
2018-12-21T18:24:44.845Z,73.73
2018-12-21T18:27:13.706Z,74.10
2018-12-21T18:29:44.181Z,71.83
2018-12-21T18:32:36.152Z,72.30
2018-12-21T18:35:08.418Z,70.53
2018-12-21T18:37:42.868Z,76.73
2018-12-21T18:40:11.875Z,71.97
2018-12-21T18:42:40.890Z,74.30
2018-12-21T18:45:09.985Z,71.90
2018-12-21T18:47:38.941Z,71.57
2018-12-21T18:50:08.144Z,70.93
2018-12-21T18:52:37.222Z,72.00
2018-12-21T18:55:07.719Z,75.60
2018-12-21T18:57:36.758Z,70.87
2018-12-21T19:00:08.664Z,71.73
2018-12-21T19:02:37.769Z,74.37
2018-12-21T19:05:07.098Z,70.77
2018-12-21T19:07:35.990Z,66.07
2018-12-21T19:10:05.550Z,72.87
2018-12-21T19:12:34.477Z,69.40
2018-12-21T19:15:03.674Z,74.57
2018-12-21T19:17:38.827Z,74.53
2018-12-21T19:20:11.691Z,79.87
2018-12-21T19:22:40.989Z,86.50
2018-12-21T19:25:11.251Z,76.07
2018-12-21T19:27:40.337Z,83.67
2018-12-21T19:30:12.131Z,71.77
2018-12-21T19:32:42.753Z,76.03
2018-12-21T19:35:13.188Z,79.20
2018-12-21T19:37:42.123Z,88.27
2018-12-21T19:40:12.309Z,79.87
2018-12-21T19:42:42.842Z,83.00
2018-12-21T19:45:14.014Z,78.93
2018-12-21T19:47:43.492Z,73.57
2018-12-21T19:50:18.816Z,81.10
2018-12-21T19:52:51.182Z,76.57
2018-12-21T19:55:32.984Z,67.97
2018-12-21T19:58:07.910Z,70.03
2018-12-21T20:00:37.729Z,69.23
2018-12-21T20:03:10.422Z,81.27
2018-12-21T20:05:45.476Z,71.67
2018-12-21T20:08:15.332Z,70.50
2018-12-21T20:10:44.375Z,82.70
2018-12-21T20:13:13.412Z,79.97
2018-12-21T20:15:43.103Z,78.00
2018-12-21T20:18:12.059Z,75.33
2018-12-21T20:20:40.998Z,77.47
2018-12-21T20:23:10.067Z,72.20
2018-12-21T20:25:39.182Z,72.47
2018-12-21T20:28:08.211Z,75.73
2018-12-21T20:30:37.323Z,75.13
2018-12-21T20:33:06.569Z,78.07
2018-12-21T20:35:35.494Z,74.13
2018-12-21T20:38:04.807Z,80.63
2018-12-21T20:40:33.746Z,80.53
2018-12-21T20:43:02.659Z,77.00
2018-12-21T20:45:31.897Z,82.40
2018-12-21T20:48:01.377Z,76.77
2018-12-21T20:50:30.391Z,70.63
2018-12-21T20:52:59.497Z,76.47
2018-12-21T20:55:28.691Z,72.37
2018-12-21T20:58:02.488Z,74.93
2018-12-21T21:00:31.403Z,75.87
2018-12-21T21:03:00.436Z,66.30
2018-12-21T21:05:29.475Z,74.30
2018-12-21T21:07:58.570Z,73.77
2018-12-21T21:10:27.532Z,75.73
2018-12-21T21:12:56.829Z,72.73
2018-12-21T21:15:26.060Z,67.20
2018-12-21T21:17:55.181Z,67.90
2018-12-21T21:20:24.126Z,70.60
2018-12-21T21:22:53.156Z,64.47
2018-12-21T21:25:23.125Z,66.90
2018-12-21T21:27:52.166Z,64.70
2018-12-21T21:30:21.222Z,65.93
2018-12-21T21:32:50.229Z,73.13
2018-12-21T21:35:25.870Z,69.13
2018-12-21T21:37:54.870Z,71.63
2018-12-21T21:40:23.779Z,69.00
2018-12-21T21:42:57.434Z,72.00
2018-12-21T21:48:22.353Z,70.93
2018-12-21T21:50:51.567Z,69.80
2018-12-21T21:53:21.540Z,68.67
2018-12-21T21:55:50.863Z,76.83
2018-12-21T21:58:27.912Z,71.17
2018-12-21T22:01:02.839Z,70.03
2018-12-21T22:03:43.958Z,73.90
2018-12-21T22:06:13.617Z,71.50
2018-12-21T22:08:42.902Z,62.87
2018-12-21T22:11:12.030Z,70.23
2018-12-21T22:13:41.049Z,69.60
2018-12-21T22:16:10.039Z,66.00
2018-12-21T22:18:43.350Z,67.67
2018-12-21T22:21:12.502Z,71.63
2018-12-21T22:26:40.626Z,70.87
2018-12-21T22:29:14.998Z,68.27
2018-12-21T22:31:49.922Z,70.27
2018-12-21T22:34:24.811Z,66.93
2018-12-21T22:36:59.685Z,73.47
2018-12-21T22:39:34.420Z,69.73
2018-12-21T22:42:09.531Z,58.40
2018-12-21T22:44:53.093Z,56.77
2018-12-21T22:47:30.805Z,66.23
2018-12-21T22:50:06.766Z,57.10
2018-12-21T22:52:39.615Z,59.17
2018-12-21T22:55:14.214Z,60.07
2018-12-21T22:57:56.254Z,57.93
2018-12-21T23:00:43.495Z,62.20
2018-12-21T23:03:20.326Z,63.90
2018-12-21T23:05:52.993Z,61.10
2018-12-21T23:08:26.922Z,62.93
2018-12-21T23:11:01.800Z,65.13
2018-12-21T23:13:34.493Z,64.30
2018-12-21T23:16:09.323Z,67.03
2018-12-21T23:18:43.602Z,58.77
2018-12-21T23:21:18.538Z,63.93
2018-12-21T23:23:55.410Z,69.23
2018-12-21T23:26:28.276Z,64.83
2018-12-21T23:29:07.603Z,66.03
2018-12-21T23:31:42.068Z,63.53
2018-12-21T23:34:16.355Z,60.20
2018-12-21T23:36:49.139Z,67.50
2018-12-21T23:39:34.349Z,63.27
2018-12-21T23:42:07.515Z,59.43
2018-12-21T23:44:42.924Z,59.07
2018-12-21T23:47:20.946Z,61.30
2018-12-21T23:49:50.175Z,59.87
2018-12-21T23:52:19.236Z,55.27
2018-12-21T23:54:48.372Z,56.13
2018-12-21T23:57:17.509Z,52.57
2018-12-21T23:59:46.531Z,58.10
